Time;durP1;ratioP1;P1;durP2;ratioP2;P2;SDS_P1;SDS_P2;PMS_P1;PMS_P2;Temp;Humidity;BMP_temperature;BMP_pressure;BME280_temperature;BME280_humidity;BME280_pressure;Samples;Min_cycle;Max_cycle;Signal;HPM_P1;HPM_P2
2022/03/25 00:02:33;;;;;;;17.25;8.02;;;9.20;30.50;;;;;;5072384;28;20067;-76
2022/03/25 00:05:02;;;;;;;17.10;7.82;;;9.10;30.70;;;;;;4992261;28;20034;-74
2022/03/25 00:07:44;;;;;;;16.98;7.43;;;9.10;30.70;;;;;;5008332;28;20446;-76
2022/03/25 00:10:50;;;;;;;14.55;7.93;;;9.10;31.10;;;;;;4992190;28;20053;-74
2022/03/25 00:13:41;;;;;;;20.95;9.02;;;9.00;30.50;;;;;;5005384;28;20038;-76
2022/03/25 00:16:29;;;;;;;15.50;8.05;;;9.00;31.10;;;;;;5008768;28;20072;-76
2022/03/25 00:19:09;;;;;;;18.23;8.63;;;8.90;31.50;;;;;;4976086;28;20053;-77
2022/03/25 00:21:40;;;;;;;19.67;8.88;;;8.80;31.60;;;;;;5008065;28;20181;-75
2022/03/25 00:24:59;;;;;;;17.65;8.93;;;8.80;31.80;;;;;;5008729;28;20054;-76
2022/03/25 00:27:47;;;;;;;17.55;8.68;;;8.70;31.90;;;;;;5007026;28;20049;-74
2022/03/25 00:30:13;;;;;;;15.98;9.07;;;8.70;31.80;;;;;;5007906;28;20491;-76
2022/03/25 00:32:41;;;;;;;18.52;8.95;;;8.60;31.70;;;;;;4992365;28;20042;-74
2022/03/25 00:35:27;;;;;;;18.90;9.70;;;8.60;31.80;;;;;;4971981;28;20133;-75
2022/03/25 00:37:53;;;;;;;17.52;8.98;;;8.60;32.40;;;;;;4956150;28;20524;-77
2022/03/25 00:40:40;;;;;;;19.67;8.43;;;8.50;32.40;;;;;;5019298;28;20033;-74
2022/03/25 00:45:51;;;;;;;18.33;8.82;;;8.40;32.60;;;;;;5068968;28;20090;-76
2022/03/25 00:48:32;;;;;;;15.20;7.80;;;8.40;32.90;;;;;;5070181;28;20083;-77
2022/03/25 00:51:07;;;;;;;15.13;7.95;;;8.30;33.30;;;;;;5076853;28;20411;-74
2022/03/25 00:53:53;;;;;;;15.27;8.02;;;8.30;33.40;;;;;;5089259;28;20101;-74
2022/03/25 00:56:24;;;;;;;18.23;8.00;;;8.20;33.50;;;;;;5088206;28;20038;-76
2022/03/25 00:59:15;;;;;;;19.23;9.38;;;8.20;33.50;;;;;;5090461;28;20040;-74
2022/03/25 01:01:43;;;;;;;20.52;11.20;;;8.20;33.50;;;;;;5102201;28;20024;-76
2022/03/25 01:04:13;;;;;;;20.48;10.75;;;8.10;33.20;;;;;;5070417;28;20397;-76
2022/03/25 01:06:42;;;;;;;18.65;8.80;;;8.00;33.60;;;;;;5069442;28;20032;-76
2022/03/25 01:09:10;;;;;;;16.70;9.10;;;8.10;34.20;;;;;;5068669;28;20049;-77
2022/03/25 01:11:39;;;;;;;16.40;7.80;;;8.00;34.40;;;;;;5068550;28;20035;-76
2022/03/25 01:14:06;;;;;;;18.27;9.52;;;8.00;34.60;;;;;;5061167;28;20040;-76
2022/03/25 01:16:34;;;;;;;16.27;8.52;;;8.00;34.60;;;;;;5069446;28;20092;-74
2022/03/25 01:19:21;;;;;;;14.98;8.57;;;7.90;34.50;;;;;;5069162;28;20040;-74
2022/03/25 01:22:16;;;;;;;16.80;8.73;;;7.90;34.30;;;;;;5069459;28;20044;-76
2022/03/25 01:24:53;;;;;;;13.35;7.47;;;7.80;33.90;;;;;;5070068;28;20063;-77
2022/03/25 01:27:22;;;;;;;15.13;7.97;;;7.70;34.10;;;;;;5068494;28;20043;-76
2022/03/25 01:29:48;;;;;;;16.35;7.72;;;7.70;34.90;;;;;;5068099;28;20036;-75
2022/03/25 01:32:56;;;;;;;12.63;7.10;;;7.70;34.90;;;;;;5077144;28;20040;-76
2022/03/25 01:35:24;;;;;;;14.85;6.50;;;7.60;35.00;;;;;;5068277;28;20044;-76
2022/03/25 01:38:15;;;;;;;13.35;6.95;;;7.60;35.00;;;;;;5070064;28;20540;-76
2022/03/25 01:41:08;;;;;;;16.85;7.57;;;7.40;35.30;;;;;;5068199;28;20037;-74
2022/03/25 01:43:57;;;;;;;13.18;6.95;;;7.30;35.40;;;;;;5068653;28;20127;-76
2022/03/25 01:46:50;;;;;;;14.90;7.97;;;7.30;35.60;;;;;;5068155;28;20040;-77
2022/03/25 01:49:18;;;;;;;11.70;6.80;;;7.20;35.50;;;;;;5089878;28;20126;-74
2022/03/25 01:52:08;;;;;;;14.13;7.53;;;7.20;35.70;;;;;;5088319;28;20043;-74
2022/03/25 01:54:35;;;;;;;12.23;6.55;;;7.10;35.60;;;;;;5089943;28;20033;-76
2022/03/25 01:57:34;;;;;;;14.18;6.57;;;7.10;35.90;;;;;;5089494;28;20054;-76
2022/03/25 02:00:14;;;;;;;16.90;6.75;;;7.00;36.00;;;;;;5068266;28;20489;-74
2022/03/25 02:02:41;;;;;;;14.30;6.63;;;7.00;36.30;;;;;;5068053;28;20086;-74
2022/03/25 02:05:15;;;;;;;13.02;7.13;;;7.00;36.80;;;;;;5069206;28;20231;-76
2022/03/25 02:08:02;;;;;;;14.63;6.97;;;6.90;36.30;;;;;;5067867;28;20036;-76
2022/03/25 02:10:32;;;;;;;14.35;7.35;;;6.90;36.70;;;;;;5072240;28;20094;-76
2022/03/25 02:13:19;;;;;;;12.90;7.55;;;6.80;36.20;;;;;;5077111;28;20666;-74
2022/03/25 02:15:48;;;;;;;24.25;7.20;;;6.80;36.30;;;;;;5077361;28;20044;-73
2022/03/25 02:18:31;;;;;;;14.40;7.10;;;6.80;36.30;;;;;;5093067;28;20043;-74
2022/03/25 02:21:01;;;;;;;13.25;6.90;;;6.70;36.40;;;;;;5090875;28;20075;-76
2022/03/25 02:23:34;;;;;;;13.30;7.68;;;6.70;36.50;;;;;;5092012;28;20070;-76
2022/03/25 02:26:13;;;;;;;17.13;7.68;;;6.70;36.70;;;;;;5091486;28;20036;-76
2022/03/25 02:29:25;;;;;;;13.88;7.28;;;6.70;36.70;;;;;;5091812;28;20526;-74
2022/03/25 02:32:08;;;;;;;13.35;6.57;;;6.60;36.90;;;;;;5092160;28;20081;-76
2022/03/25 02:34:34;;;;;;;13.25;6.55;;;6.60;37.20;;;;;;5074933;28;20485;-74
2022/03/25 02:37:05;;;;;;;12.25;5.93;;;6.40;37.20;;;;;;5091971;28;20115;-76
2022/03/25 02:39:31;;;;;;;17.10;8.10;;;6.30;37.40;;;;;;5091113;28;20447;-74
2022/03/25 02:42:23;;;;;;;11.10;6.45;;;6.30;37.50;;;;;;5090975;28;20036;-76
2022/03/25 02:44:49;;;;;;;12.48;7.45;;;6.30;37.40;;;;;;5090967;28;20040;-76
2022/03/25 02:47:21;;;;;;;15.43;7.10;;;6.20;37.30;;;;;;5091028;28;20040;-74
2022/03/25 02:50:03;;;;;;;13.45;7.03;;;6.20;37.30;;;;;;5074444;28;20062;-76
2022/03/25 02:52:36;;;;;;;16.23;8.13;;;6.20;37.80;;;;;;5091010;28;20055;-76
2022/03/25 02:55:08;;;;;;;18.88;8.35;;;6.20;37.60;;;;;;5082449;28;20036;-73
2022/03/25 02:57:41;;;;;;;17.17;9.18;;;6.10;37.50;;;;;;5072626;28;20049;-74
2022/03/25 03:00:11;;;;;;;14.20;7.10;;;6.10;37.50;;;;;;5070535;28;20528;-75
2022/03/25 03:02:40;;;;;;;11.73;6.25;;;6.10;37.80;;;;;;5054279;28;20567;-74
2022/03/25 03:05:11;;;;;;;17.35;7.25;;;6.10;38.20;;;;;;5071809;28;20049;-76
2022/03/25 03:07:42;;;;;;;14.52;7.35;;;5.90;38.00;;;;;;5071611;28;20056;-74
2022/03/25 03:10:09;;;;;;;16.60;7.82;;;5.90;38.30;;;;;;5071117;28;20509;-76
2022/03/25 03:12:42;;;;;;;;;;;5.90;38.40;;;;;;5071218;28;20040;-76
2022/03/25 03:15:50;;;;;;;15.52;8.70;;;5.90;37.60;;;;;;5089438;28;19955;-76
2022/03/25 03:18:45;;;;;;;17.58;9.35;;;5.80;38.10;;;;;;5092526;28;20082;-76
2022/03/25 03:21:34;;;;;;;19.33;10.15;;;5.80;38.10;;;;;;5090823;28;20055;-76
2022/03/25 03:24:09;;;;;;;17.77;8.10;;;5.70;38.40;;;;;;5091561;28;20076;-74
2022/03/25 03:26:40;;;;;;;16.88;8.40;;;5.70;38.50;;;;;;5090374;28;20474;-74
2022/03/25 03:29:09;;;;;;;15.80;8.15;;;5.60;38.50;;;;;;5075210;28;20417;-74
2022/03/25 03:31:55;;;;;;;14.93;7.70;;;5.60;38.80;;;;;;5086141;28;20020;-74
2022/03/25 03:34:29;;;;;;;15.75;7.35;;;5.50;39.10;;;;;;5073238;28;20154;-74
2022/03/25 03:37:01;;;;;;;14.70;8.10;;;5.40;39.40;;;;;;5091772;28;20461;-73
2022/03/25 03:39:47;;;;;;;20.98;8.52;;;5.20;39.40;;;;;;5091424;28;20405;-75
2022/03/25 03:42:28;;;;;;;17.17;8.80;;;5.30;39.50;;;;;;5089387;28;20035;-76
2022/03/25 03:44:57;;;;;;;20.70;9.90;;;5.30;39.40;;;;;;5089859;28;20082;-75
2022/03/25 03:47:31;;;;;;;15.07;8.85;;;5.20;39.30;;;;;;5091199;28;20036;-74
2022/03/25 03:49:59;;;;;;;18.75;10.02;;;5.20;39.40;;;;;;5090086;28;20546;-75
2022/03/25 03:52:43;;;;;;;22.50;11.88;;;5.20;39.30;;;;;;5089675;28;20043;-74
2022/03/25 03:55:15;;;;;;;22.20;12.40;;;5.20;39.40;;;;;;5091470;28;20392;-77
2022/03/25 03:57:50;;;;;;;25.10;12.45;;;5.20;39.10;;;;;;5107082;28;20346;-76
2022/03/25 04:00:20;;;;;;;28.27;11.98;;;5.10;39.20;;;;;;5088075;28;20032;-76
2022/03/25 04:02:54;;;;;;;25.95;13.25;;;5.10;39.10;;;;;;5073371;28;20043;-76
2022/03/25 04:05:31;;;;;;;21.98;11.00;;;5.10;39.50;;;;;;5056886;28;20032;-76
2022/03/25 04:08:00;;;;;;;21.77;10.52;;;5.00;39.00;;;;;;5106794;28;20036;-76
2022/03/25 04:10:26;;;;;;;19.77;11.18;;;5.00;39.50;;;;;;5091693;28;20048;-76
2022/03/25 04:12:52;;;;;;;;;;;5.00;39.60;;;;;;5093151;28;20567;-77
2022/03/25 04:15:19;;;;;;;20.67;9.95;;;4.90;39.20;;;;;;5092135;28;19920;-73
2022/03/25 04:17:48;;;;;;;18.48;9.35;;;4.90;39.00;;;;;;5042573;28;20040;-76
2022/03/25 04:20:49;;;;;;;16.92;9.48;;;4.90;39.80;;;;;;5068919;28;20025;-74
2022/03/25 04:23:43;;;;;;;25.52;9.73;;;4.80;40.00;;;;;;5068836;28;20382;-76
2022/03/25 04:26:33;;;;;;;17.35;10.07;;;4.80;40.30;;;;;;5069064;28;20563;-73
2022/03/25 04:29:31;;;;;;;19.35;8.77;;;4.80;40.20;;;;;;5069516;28;20052;-76
2022/03/25 04:32:09;;;;;;;14.90;9.45;;;4.70;40.30;;;;;;5069679;28;20052;-76
2022/03/25 04:34:47;;;;;;;17.98;9.43;;;4.70;40.20;;;;;;5068202;28;20040;-72
2022/03/25 04:37:13;;;;;;;16.05;8.65;;;4.70;40.30;;;;;;5087508;28;20032;-73
2022/03/25 04:39:39;;;;;;;16.05;9.15;;;4.60;40.50;;;;;;5090502;28;20040;-76
2022/03/25 04:42:11;;;;;;;23.27;8.18;;;4.60;40.70;;;;;;5088504;28;20048;-74
2022/03/25 04:45:17;;;;;;;23.15;8.50;;;4.50;40.80;;;;;;5090807;28;20039;-73
2022/03/25 04:48:14;;;;;;;17.65;7.97;;;4.40;40.90;;;;;;5090678;28;20055;-73
2022/03/25 04:50:44;;;;;;;20.63;7.70;;;4.40;40.70;;;;;;5088827;28;20048;-74
2022/03/25 04:53:28;;;;;;;18.65;8.60;;;4.40;41.10;;;;;;5079264;28;20036;-75
2022/03/25 04:55:54;;;;;;;25.70;9.10;;;4.40;41.30;;;;;;5051930;28;20036;-73
2022/03/25 04:58:45;;;;;;;16.13;8.05;;;4.40;41.10;;;;;;5070253;28;20037;-73
2022/03/25 05:01:11;;;;;;;16.23;7.80;;;4.40;41.20;;;;;;5068292;28;20033;-73
2022/03/25 05:03:58;;;;;;;17.40;8.80;;;4.40;41.00;;;;;;5069072;28;20045;-72
2022/03/25 05:06:34;;;;;;;21.57;8.83;;;4.40;41.10;;;;;;5067912;28;20047;-73
2022/03/25 05:09:07;;;;;;;16.20;7.20;;;4.40;41.10;;;;;;5084691;28;20036;-73
2022/03/25 05:12:00;;;;;;;15.38;7.50;;;4.30;40.50;;;;;;5069611;28;20102;-76
2022/03/25 05:15:07;;;;;;;29.50;8.82;;;4.30;41.00;;;;;;5082981;28;20432;-78
2022/03/25 05:17:52;;;;;;;29.42;9.02;;;4.40;41.30;;;;;;5068059;28;20056;-76
2022/03/25 05:20:21;;;;;;;18.42;8.60;;;4.40;41.20;;;;;;5068820;28;20501;-76
2022/03/25 05:22:54;;;;;;;18.55;9.23;;;4.40;41.00;;;;;;5069743;28;20079;-73
2022/03/25 05:25:41;;;;;;;24.05;9.98;;;4.40;41.10;;;;;;5084317;28;20324;-76
2022/03/25 05:28:54;;;;;;;22.52;10.40;;;4.40;41.40;;;;;;5077124;28;20131;-76
2022/03/25 05:31:21;;;;;;;22.35;10.48;;;4.50;41.00;;;;;;5069248;28;20114;-73
2022/03/25 05:34:31;;;;;;;17.70;8.98;;;4.50;40.90;;;;;;5051745;28;20036;-75
2022/03/25 05:37:40;;;;;;;19.42;10.38;;;4.50;41.20;;;;;;5067974;28;20048;-76
2022/03/25 05:40:18;;;;;;;25.67;12.60;;;4.60;41.30;;;;;;5069402;28;20033;-75
2022/03/25 05:43:08;;;;;;;15.32;8.50;;;4.60;40.90;;;;;;5069475;28;20068;-74
2022/03/25 05:45:36;;;;;;;23.13;11.88;;;4.70;41.50;;;;;;5071418;28;20086;-73
2022/03/25 05:48:03;;;;;;;25.70;11.05;;;4.70;42.10;;;;;;5056218;28;20037;-76
2022/03/25 05:50:38;;;;;;;26.10;11.68;;;4.70;41.30;;;;;;5071935;28;20046;-73
2022/03/25 05:53:05;;;;;;;26.33;14.52;;;4.80;41.50;;;;;;5073954;28;20041;-73
2022/03/25 05:55:40;;;;;;;26.85;17.30;;;4.80;41.50;;;;;;5071777;28;20493;-76
2022/03/25 05:58:41;;;;;;;37.95;19.98;;;4.80;41.70;;;;;;5071788;28;20192;-73
2022/03/25 06:01:10;;;;;;;37.00;17.63;;;4.90;42.00;;;;;;5072776;28;20032;-76
2022/03/25 06:03:44;;;;;;;66.13;30.63;;;4.90;41.20;;;;;;5071552;28;20102;-76
2022/03/25 06:06:16;;;;;;;53.53;25.80;;;5.10;41.90;;;;;;5070973;28;20131;-75
2022/03/25 06:11:57;;;;;;;64.57;20.38;;;5.20;42.10;;;;;;5072287;28;20047;-73
2022/03/25 06:14:26;;;;;;;54.08;22.00;;;5.30;41.70;;;;;;5073539;28;20115;-76
2022/03/25 06:17:08;;;;;;;65.07;25.95;;;5.40;41.70;;;;;;5071612;28;20094;-73
2022/03/25 06:19:39;;;;;;;54.03;22.95;;;5.60;41.60;;;;;;5072872;28;20037;-75
2022/03/25 06:22:05;;;;;;;50.88;24.73;;;5.70;41.80;;;;;;5072127;28;20080;-73
2022/03/25 06:24:40;;;;;;;50.25;25.70;;;5.70;41.80;;;;;;5092225;28;20501;-73
2022/03/25 06:27:08;;;;;;;46.67;26.50;;;5.90;42.10;;;;;;5091061;28;20324;-76
2022/03/25 06:29:34;;;;;;;55.67;28.77;;;5.90;42.30;;;;;;5091739;28;20051;-73
2022/03/25 06:32:36;;;;;;;55.65;29.13;;;6.00;42.30;;;;;;5092013;28;20072;-73
2022/03/25 06:35:02;;;;;;;56.47;27.08;;;6.20;42.30;;;;;;5091360;28;20105;-75
2022/03/25 06:37:33;;;;;;;68.50;32.03;;;6.30;42.10;;;;;;5093045;28;20447;-73
2022/03/25 06:40:00;;;;;;;54.53;29.52;;;6.30;41.90;;;;;;5059448;28;20374;-76
2022/03/25 06:42:59;;;;;;;55.97;27.92;;;6.50;41.80;;;;;;5091450;28;20043;-74
2022/03/25 06:45:45;;;;;;;46.65;25.67;;;6.70;41.60;;;;;;5092058;28;20032;-76
2022/03/25 06:48:23;;;;;;;47.75;25.90;;;6.80;41.10;;;;;;5091496;28;20044;-73
2022/03/25 06:50:59;;;;;;;46.47;24.10;;;6.90;40.90;;;;;;5092173;28;20036;-75
2022/03/25 06:53:36;;;;;;;43.25;25.20;;;7.00;40.60;;;;;;5091558;28;20489;-74
2022/03/25 06:56:12;;;;;;;44.75;25.75;;;7.20;40.70;;;;;;5073390;28;20043;-76
2022/03/25 06:58:39;;;;;;;47.63;26.38;;;7.20;39.90;;;;;;5074287;28;20273;-73
2022/03/25 07:01:07;;;;;;;60.88;31.55;;;7.40;39.70;;;;;;5091994;28;20115;-73
2022/03/25 07:03:53;;;;;;;52.05;28.70;;;7.60;40.00;;;;;;5074005;28;20423;-73
2022/03/25 07:06:40;;;;;;;42.40;23.48;;;7.70;39.70;;;;;;5091705;28;20531;-76
2022/03/25 07:09:47;;;;;;;51.45;26.35;;;7.80;39.70;;;;;;5091044;28;20610;-73
2022/03/25 07:12:19;;;;;;;39.28;21.90;;;8.00;39.20;;;;;;5091749;28;20028;-76
2022/03/25 07:14:51;;;;;;;33.92;19.60;;;8.10;38.80;;;;;;5090196;28;20044;-76
2022/03/25 07:17:54;;;;;;;40.30;22.10;;;8.30;38.40;;;;;;5091752;28;20507;-73
2022/03/25 07:20:27;;;;;;;;;;;8.50;38.30;;;;;;5091262;28;20621;-76
2022/03/25 07:22:54;;;;;;;36.85;20.70;;;8.70;38.00;;;;;;5090538;28;19966;-73
2022/03/25 07:25:21;;;;;;;34.22;19.35;;;8.80;37.50;;;;;;5089972;28;20040;-73
2022/03/25 07:27:59;;;;;;;36.05;19.85;;;9.00;38.00;;;;;;5069941;28;20049;-73
2022/03/25 07:30:25;;;;;;;37.65;21.25;;;9.10;37.90;;;;;;5070197;28;20033;-76
2022/03/25 07:32:59;;;;;;;45.53;23.85;;;9.40;37.90;;;;;;5071303;28;20708;-76
2022/03/25 07:35:37;;;;;;;49.72;23.83;;;9.60;37.70;;;;;;5069911;28;20029;-76
2022/03/25 07:38:06;;;;;;;39.47;21.70;;;9.80;37.50;;;;;;5072367;28;20040;-76
2022/03/25 07:40:41;;;;;;;44.35;21.83;;;10.00;37.20;;;;;;5069948;28;20033;-74
2022/03/25 07:43:13;;;;;;;49.78;24.95;;;10.50;37.20;;;;;;5070067;28;20036;-73
2022/03/25 07:45:45;;;;;;;32.83;18.88;;;11.30;36.40;;;;;;5053603;28;20028;-76
2022/03/25 07:48:11;;;;;;;31.55;16.35;;;12.00;35.40;;;;;;5070018;28;20553;-77
2022/03/25 07:50:39;;;;;;;;;;;12.90;34.70;;;;;;5087017;28;20081;-77
2022/03/25 07:53:10;;;;;;;35.50;17.27;;;13.80;36.30;;;;;;5070320;28;20323;-77
2022/03/25 07:55:39;;;;;;;44.88;22.13;;;14.50;32.80;;;;;;5070890;28;20062;-77
2022/03/25 07:58:08;;;;;;;34.50;16.55;;;15.20;31.10;;;;;;5069446;28;20106;-78
2022/03/25 08:00:38;;;;;;;30.65;15.10;;;16.00;30.50;;;;;;5070647;28;20039;-78
2022/03/25 08:03:04;;;;;;;25.25;14.10;;;16.70;29.10;;;;;;5069703;28;20116;-78
2022/03/25 08:05:40;;;;;;;25.67;13.52;;;17.40;28.60;;;;;;5070488;28;20126;-78
2022/03/25 08:08:07;;;;;;;23.37;13.70;;;18.20;27.50;;;;;;5069763;28;20040;-78
2022/03/25 08:10:58;;;;;;;26.10;14.23;;;18.70;26.90;;;;;;5068794;28;20044;-78
2022/03/25 08:13:27;;;;;;;27.90;16.10;;;19.50;26.10;;;;;;5069345;28;20424;-78
2022/03/25 08:15:53;;;;;;;27.50;15.43;;;20.30;25.50;;;;;;5062724;28;20040;-74
2022/03/25 08:18:35;;;;;;;22.58;13.93;;;21.00;24.90;;;;;;5090098;28;20036;-78
2022/03/25 08:21:02;;;;;;;;;;;21.70;23.80;;;;;;5090486;28;20068;-78
2022/03/25 08:29:25;;;;;;;24.27;14.30;;;23.90;21.30;;;;;;5091305;28;20082;-74
2022/03/25 08:32:16;;;;;;;24.65;13.88;;;24.60;20.80;;;;;;5089234;28;20040;-79
2022/03/25 08:34:46;;;;;;;23.27;13.98;;;25.30;20.10;;;;;;5089394;28;20050;-79
2022/03/25 08:37:25;;;;;;;27.17;17.40;;;26.00;19.00;;;;;;5089026;28;20493;-78
2022/03/25 08:39:53;;;;;;;23.52;14.82;;;26.60;18.20;;;;;;5086684;28;20081;-75
2022/03/25 08:42:27;;;;;;;28.20;15.45;;;27.20;17.70;;;;;;5088747;28;20115;-74
2022/03/25 08:44:53;;;;;;;27.17;17.63;;;27.90;16.60;;;;;;5072065;28;20054;-79
2022/03/25 08:47:45;;;;;;;30.88;21.13;;;28.60;16.20;;;;;;5089174;28;20393;-75
2022/03/25 08:50:22;;;;;;;30.17;18.52;;;28.80;16.00;;;;;;5089047;28;20492;-79
2022/03/25 08:53:08;;;;;;;33.30;18.88;;;29.50;15.00;;;;;;5072180;28;20117;-74
2022/03/25 08:55:36;;;;;;;26.23;17.73;;;30.00;14.60;;;;;;5074099;28;20133;-75
2022/03/25 09:01:15;;;;;;;25.58;15.75;;;30.90;13.10;;;;;;5007400;28;20137;-79
2022/03/25 09:03:54;;;;;;;26.35;16.73;;;31.60;13.50;;;;;;4991014;28;20452;-79
2022/03/25 09:06:24;;;;;;;24.95;15.85;;;32.00;12.50;;;;;;5007348;28;20033;-75
2022/03/25 09:08:53;;;;;;;25.80;15.30;;;32.60;11.90;;;;;;4990434;28;20030;-74
2022/03/25 09:11:23;;;;;;;25.73;17.92;;;33.10;11.90;;;;;;5007478;28;20068;-75
2022/03/25 09:13:49;;;;;;;19.13;13.88;;;33.40;11.40;;;;;;5007735;28;20065;-78
2022/03/25 09:16:34;;;;;;;21.75;13.98;;;34.00;11.10;;;;;;5007511;28;20041;-80
2022/03/25 09:19:03;;;;;;;18.45;13.05;;;34.70;10.90;;;;;;5013105;28;20103;-79
2022/03/25 09:21:33;;;;;;;19.05;13.13;;;35.20;10.20;;;;;;4997411;28;20088;-79
2022/03/25 09:24:19;;;;;;;22.45;13.57;;;35.70;9.70;;;;;;5001078;28;20045;-79
2022/03/25 09:27:05;;;;;;;21.65;13.57;;;36.10;8.70;;;;;;5014641;28;20104;-79
2022/03/25 09:29:41;;;;;;;20.63;13.23;;;36.30;8.70;;;;;;5034006;28;20044;-79
2022/03/25 09:32:08;;;;;;;23.55;15.10;;;36.90;8.50;;;;;;5033937;28;20049;-75
2022/03/25 09:37:23;;;;;;;22.83;14.13;;;37.60;7.80;;;;;;5043808;28;20051;-74
2022/03/25 09:39:56;;;;;;;19.77;12.80;;;37.90;7.80;;;;;;5074919;28;20451;-79
2022/03/25 09:42:53;;;;;;;24.23;14.07;;;38.50;7.60;;;;;;5088559;28;20156;-79
2022/03/25 09:45:30;;;;;;;20.20;12.38;;;38.90;6.80;;;;;;5075733;28;20032;-76
2022/03/25 09:48:13;;;;;;;25.38;13.55;;;39.20;6.70;;;;;;5042344;28;20033;-79
2022/03/25 09:50:41;;;;;;;30.75;13.55;;;39.40;6.70;;;;;;5075926;28;20036;-78
2022/03/25 09:53:11;;;;;;;18.02;13.65;;;39.70;6.60;;;;;;5075799;28;20489;-75
2022/03/25 09:55:58;;;;;;;22.25;14.10;;;40.30;6.60;;;;;;5073705;28;20063;-75
2022/03/25 09:58:24;;;;;;;51.40;14.75;;;40.80;6.40;;;;;;5058345;28;20041;-76
2022/03/25 10:00:52;;;;;;;29.13;14.60;;;41.10;6.50;;;;;;5075737;28;20528;-79
2022/03/25 10:04:01;;;;;;;17.42;12.77;;;41.30;6.10;;;;;;5074960;28;20501;-79
2022/03/25 10:06:28;;;;;;;22.40;12.80;;;41.70;6.10;;;;;;5074136;28;20032;-75
2022/03/25 10:09:20;;;;;;;16.42;12.68;;;42.10;5.30;;;;;;5089001;28;20081;-75
2022/03/25 10:12:28;;;;;;;20.63;13.15;;;42.60;5.40;;;;;;5094539;28;20040;-75
2022/03/25 10:15:39;;;;;;;22.15;13.30;;;43.30;5.20;;;;;;5080748;28;20028;-75
2022/03/25 10:18:32;;;;;;;19.80;12.20;;;43.40;5.30;;;;;;5116946;27;20039;-79
2022/03/25 10:21:09;;;;;;;17.25;12.93;;;43.80;4.60;;;;;;5114738;28;20044;-79
2022/03/25 10:23:36;;;;;;;16.17;12.30;;;44.00;4.80;;;;;;5132503;27;20508;-76
2022/03/25 10:26:05;;;;;;;19.67;12.57;;;44.40;4.50;;;;;;5114621;28;20106;-79
2022/03/25 10:28:44;;;;;;;16.13;12.32;;;44.30;4.00;;;;;;5095124;28;20040;-79
2022/03/25 10:31:28;;;;;;;23.35;14.95;;;44.80;3.90;;;;;;5090905;28;20063;-75
2022/03/25 10:34:24;;;;;;;19.35;12.25;;;45.20;4.30;;;;;;5092940;28;20143;-79
2022/03/25 10:37:15;;;;;;;19.13;12.05;;;45.30;4.30;;;;;;5079004;28;20115;-76
2022/03/25 10:40:13;;;;;;;20.23;12.90;;;45.80;3.80;;;;;;5091039;28;20050;-79
2022/03/25 10:43:16;;;;;;;18.90;12.88;;;46.00;3.80;;;;;;5091265;28;20032;-75
2022/03/25 10:45:45;;;;;;;21.63;14.68;;;46.30;3.80;;;;;;5071088;28;20127;-79
2022/03/25 10:48:42;;;;;;;23.80;17.20;;;46.30;3.50;;;;;;5091630;28;20033;-75
2022/03/25 10:51:21;;;;;;;18.55;14.82;;;46.30;3.90;;;;;;5092157;28;20032;-79
2022/03/25 10:53:57;;;;;;;29.17;14.82;;;46.30;3.10;;;;;;5091579;28;20036;-75
2022/03/25 10:56:24;;;;;;;19.83;14.32;;;47.10;3.60;;;;;;5091230;28;20035;-75
2022/03/25 10:59:35;;;;;;;22.75;14.32;;;47.20;3.40;;;;;;5091188;28;20102;-78
2022/03/25 11:02:24;;;;;;;21.05;14.35;;;47.60;3.30;;;;;;5092603;28;20382;-75
2022/03/25 11:04:52;;;;;;;20.27;14.88;;;48.00;3.50;;;;;;5074069;28;20051;-75
2022/03/25 11:07:35;;;;;;;30.92;15.23;;;48.50;3.00;;;;;;5073740;28;20036;-75
2022/03/25 11:10:01;;;;;;;23.63;13.77;;;48.50;3.10;;;;;;5091275;28;20202;-75
2022/03/25 11:12:31;;;;;;;22.67;14.23;;;48.70;3.00;;;;;;5103366;28;20039;-75
2022/03/25 11:14:59;;;;;;;17.80;14.63;;;49.10;3.30;;;;;;5128140;27;20564;-75
2022/03/25 11:18:08;;;;;;;21.98;14.55;;;49.30;3.40;;;;;;5094841;28;20031;-76
2022/03/25 11:20:36;;;;;;;22.63;14.35;;;49.50;3.20;;;;;;5103495;28;20035;-75
2022/03/25 11:23:11;;;;;;;19.48;14.52;;;49.60;3.00;;;;;;5112063;28;20433;-78
2022/03/25 11:26:09;;;;;;;23.38;16.02;;;49.40;2.70;;;;;;5111888;27;20465;-75
2022/03/25 11:29:11;;;;;;;19.63;15.15;;;49.80;2.70;;;;;;5087777;28;20072;-76
2022/03/25 11:32:15;;;;;;;22.63;14.97;;;49.70;2.70;;;;;;5090124;28;20044;-78
2022/03/25 11:35:21;;;;;;;22.70;15.02;;;49.50;3.00;;;;;;5090215;28;20040;-79
2022/03/25 11:38:39;;;;;;;19.00;14.10;;;49.70;2.90;;;;;;5092184;28;20046;-74
2022/03/25 11:41:42;;;;;;;18.13;14.68;;;50.00;2.90;;;;;;5091046;28;20512;-75
2022/03/25 11:44:38;;;;;;;22.73;14.30;;;50.10;2.70;;;;;;5091759;28;20047;-77
2022/03/25 11:47:40;;;;;;;21.67;14.35;;;50.40;2.80;;;;;;5047041;28;20056;-75
2022/03/25 11:50:47;;;;;;;19.83;14.65;;;50.90;2.30;;;;;;5090217;28;20048;-79
2022/03/25 11:53:31;;;;;;;19.67;14.65;;;50.50;2.30;;;;;;5107571;28;20056;-75
2022/03/25 11:56:16;;;;;;;20.50;14.30;;;50.80;2.00;;;;;;5103842;28;20052;-75
2022/03/25 11:59:10;;;;;;;17.83;14.63;;;51.40;2.20;;;;;;5091289;28;20439;-75
2022/03/25 12:01:36;;;;;;;21.85;14.60;;;51.20;1.90;;;;;;5089639;28;20040;-76
2022/03/25 12:04:02;;;;;;;22.65;17.20;;;50.80;1.90;;;;;;5089790;28;20040;-75
2022/03/25 12:07:08;;;;;;;16.83;14.55;;;50.80;1.80;;;;;;5089311;28;20123;-79
2022/03/25 12:09:40;;;;;;;21.05;15.27;;;50.80;2.10;;;;;;5069597;28;20041;-76
2022/03/25 12:12:18;;;;;;;19.70;16.23;;;50.80;2.00;;;;;;5069103;28;20029;-78
2022/03/25 12:15:38;;;;;;;17.35;14.73;;;50.50;1.70;;;;;;5070947;28;20040;-75
2022/03/25 12:18:46;;;;;;;22.23;16.33;;;50.40;2.00;;;;;;5069249;28;20040;-75
2022/03/25 12:21:30;;;;;;;29.05;20.38;;;50.50;2.00;;;;;;5068143;28;20067;-79
2022/03/25 12:24:08;;;;;;;19.67;15.55;;;51.00;2.50;;;;;;5070459;28;20036;-75
2022/03/25 12:27:20;;;;;;;20.92;17.75;;;51.10;2.20;;;;;;5069939;28;20028;-75
2022/03/25 12:29:56;;;;;;;21.48;16.35;;;51.20;2.30;;;;;;5069569;28;20086;-75
2022/03/25 12:32:31;;;;;;;36.67;26.15;;;51.60;2.10;;;;;;5067069;28;20557;-75
2022/03/25 12:35:17;;;;;;;24.88;19.85;;;51.50;1.80;;;;;;5068959;28;20044;-79
2022/03/25 12:38:29;;;;;;;22.10;17.67;;;50.90;1.50;;;;;;5068757;28;20086;-78
2022/03/25 12:40:58;;;;;;;25.17;16.63;;;51.30;1.90;;;;;;5069902;28;20049;-79
2022/03/25 12:43:42;;;;;;;28.60;20.73;;;51.70;1.70;;;;;;5069904;28;20033;-75
2022/03/25 12:46:11;;;;;;;20.08;15.95;;;51.80;1.90;;;;;;5071658;28;20036;-79
2022/03/25 12:49:15;;;;;;;17.92;15.18;;;51.40;1.70;;;;;;5088842;28;20071;-75
2022/03/25 12:51:41;;;;;;;32.22;21.55;;;51.10;1.90;;;;;;5089838;28;20036;-75
2022/03/25 12:55:01;;;;;;;41.65;30.13;;;50.80;1.90;;;;;;5088403;28;20036;-74
2022/03/25 12:58:10;;;;;;;25.30;16.40;;;51.20;2.20;;;;;;5088543;28;20497;-79
2022/03/25 13:00:42;;;;;;;22.10;17.23;;;51.40;2.20;;;;;;5089822;28;20059;-75
2022/03/25 13:03:17;;;;;;;23.33;16.98;;;51.60;2.00;;;;;;5072074;28;20090;-79
2022/03/25 13:05:45;;;;;;;19.98;15.70;;;51.80;1.80;;;;;;5105799;28;20043;-79
2022/03/25 13:08:24;;;;;;;20.23;17.33;;;51.20;2.00;;;;;;5109975;28;20035;-76
2022/03/25 13:11:30;;;;;;;20.00;16.58;;;51.10;2.00;;;;;;5108395;28;20514;-76
2022/03/25 13:14:13;;;;;;;23.77;16.25;;;51.00;2.20;;;;;;5093065;28;20540;-79
2022/03/25 13:16:47;;;;;;;18.73;15.13;;;51.30;2.30;;;;;;5108699;28;20101;-75
2022/03/25 13:19:14;;;;;;;17.00;14.88;;;51.20;2.10;;;;;;5108684;28;20028;-79
2022/03/25 13:21:52;;;;;;;24.17;15.18;;;51.70;1.40;;;;;;5091404;28;20039;-79
2022/03/25 13:24:24;;;;;;;21.17;16.67;;;51.90;1.80;;;;;;5109253;28;20084;-76
2022/03/25 13:26:51;;;;;;;19.35;16.17;;;51.90;1.60;;;;;;5102327;28;20033;-76
2022/03/25 13:29:44;;;;;;;18.48;16.13;;;51.50;2.20;;;;;;5069676;28;20503;-76
2022/03/25 13:32:34;;;;;;;19.38;15.32;;;51.60;2.20;;;;;;5085076;28;20494;-75
2022/03/25 13:35:19;;;;;;;18.17;15.35;;;51.30;2.30;;;;;;5069629;28;20047;-79
2022/03/25 13:37:47;;;;;;;17.17;14.48;;;51.30;2.20;;;;;;5070279;28;20052;-79
2022/03/25 13:40:54;;;;;;;17.92;14.05;;;51.30;2.10;;;;;;5070780;28;20037;-76
2022/03/25 13:43:27;;;;;;;18.33;13.77;;;51.30;2.20;;;;;;5068635;28;20040;-79
2022/03/25 13:46:39;;;;;;;17.33;14.48;;;51.20;2.10;;;;;;5068047;28;20096;-76
2022/03/25 13:49:24;;;;;;;20.30;14.18;;;51.20;2.10;;;;;;5066503;28;20037;-79
2022/03/25 13:52:08;;;;;;;23.02;15.25;;;51.10;2.10;;;;;;5067741;28;20041;-75
2022/03/25 13:54:34;;;;;;;20.38;15.27;;;50.90;1.80;;;;;;5071495;28;20493;-79
2022/03/25 13:57:04;;;;;;;30.70;14.88;;;50.80;1.90;;;;;;5087845;28;20054;-79
2022/03/25 13:59:58;;;;;;;19.83;16.17;;;50.60;2.00;;;;;;5071916;28;20030;-80
2022/03/25 14:02:30;;;;;;;18.30;15.75;;;50.40;2.00;;;;;;5069660;28;20037;-79
2022/03/25 14:05:25;;;;;;;16.48;14.57;;;50.10;2.00;;;;;;5052690;28;20503;-79